createdAt,value
2022-09-23T00:01:20.395Z,92.70
2022-09-23T00:03:49.252Z,90.53
2022-09-23T00:06:22.795Z,93.12
2022-09-23T00:08:51.351Z,94.18
2022-09-23T00:11:24.512Z,94.24
2022-09-23T00:13:54.924Z,93.58
2022-09-23T00:16:32.539Z,93.72
2022-09-23T00:19:02.410Z,93.47
2022-09-23T00:21:30.111Z,92.94
2022-09-23T00:23:57.614Z,92.83
2022-09-23T00:26:25.365Z,93.88
2022-09-23T00:28:52.862Z,94.28
2022-09-23T00:31:25.942Z,96.34
2022-09-23T00:33:59.640Z,95.93
2022-09-23T00:36:28.342Z,96.05
2022-09-23T00:38:56.789Z,96.09
2022-09-23T00:41:24.608Z,95.28
2022-09-23T00:43:53.523Z,95.75
2022-09-23T00:46:38.901Z,95.81
2022-09-23T00:49:09.401Z,97.22
2022-09-23T00:51:43.444Z,97.22
2022-09-23T00:54:11.449Z,97.49
2022-09-23T00:56:39.856Z,97.40
2022-09-23T00:59:09.616Z,96.70
2022-09-23T01:01:38.360Z,97.02
2022-09-23T01:04:07.852Z,97.49
2022-09-23T01:06:35.717Z,96.72
2022-09-23T01:09:03.527Z,96.38
2022-09-23T01:11:43.130Z,96.37
2022-09-23T01:14:29.250Z,96.10
2022-09-23T01:17:06.820Z,95.24
2022-09-23T01:19:36.859Z,93.91
2022-09-23T01:22:10.298Z,93.53
2022-09-23T01:24:43.462Z,93.44
2022-09-23T01:27:46.656Z,93.39
2022-09-23T01:30:20.815Z,92.97
2022-09-23T01:33:08.118Z,92.34
2022-09-23T01:36:00.884Z,92.53
2022-09-23T01:38:43.749Z,92.48
2022-09-23T01:41:38.778Z,93.18
2022-09-23T01:44:11.322Z,93.03
2022-09-23T01:46:48.330Z,93.72
2022-09-23T01:49:35.250Z,92.35
2022-09-23T01:52:14.703Z,91.57
2022-09-23T01:54:58.672Z,93.01
2022-09-23T01:57:32.252Z,93.16
2022-09-23T02:00:23.022Z,93.81
2022-09-23T02:03:01.506Z,94.55
2022-09-23T02:05:41.378Z,93.57
2022-09-23T02:08:19.456Z,93.22
2022-09-23T02:10:56.398Z,92.29
2022-09-23T02:13:40.020Z,93.77
2022-09-23T02:16:22.107Z,93.46
2022-09-23T02:18:56.180Z,94.76
2022-09-23T02:21:29.916Z,95.12
2022-09-23T02:24:11.648Z,94.86
2022-09-23T02:26:54.376Z,96.33
2022-09-23T02:29:33.709Z,96.56
2022-09-23T02:32:15.424Z,95.74
2022-09-23T02:34:57.132Z,96.87
2022-09-23T02:37:53.291Z,96.60
2022-09-23T02:40:38.576Z,95.46
2022-09-23T02:43:08.897Z,95.69
2022-09-23T02:45:38.975Z,94.87
2022-09-23T02:48:44.336Z,94.61
2022-09-23T02:51:13.097Z,93.87
2022-09-23T02:53:40.529Z,93.99
2022-09-23T02:56:21.114Z,94.08
2022-09-23T02:58:51.826Z,93.50
2022-09-23T03:01:26.268Z,92.59
2022-09-23T03:04:13.106Z,93.03
2022-09-23T03:07:00.862Z,92.60
2022-09-23T03:09:34.814Z,94.52
2022-09-23T03:12:06.791Z,94.33
2022-09-23T03:14:53.917Z,93.03
2022-09-23T03:17:30.337Z,92.87
2022-09-23T03:20:16.319Z,93.18
2022-09-23T03:22:52.986Z,92.88
2022-09-23T03:25:24.433Z,92.81
2022-09-23T03:27:57.467Z,93.03
2022-09-23T03:30:26.464Z,92.80
2022-09-23T03:32:57.091Z,93.45
2022-09-23T03:35:29.306Z,93.28
2022-09-23T03:38:16.018Z,93.45
2022-09-23T03:40:47.798Z,93.12
2022-09-23T03:43:15.328Z,91.94
2022-09-23T03:45:42.915Z,90.61
2022-09-23T03:48:10.572Z,89.83
2022-09-23T03:50:39.213Z,89.59
2022-09-23T03:53:07.005Z,89.58
2022-09-23T03:55:34.867Z,89.43
2022-09-23T03:58:04.794Z,89.71
2022-09-23T04:00:32.250Z,89.97
2022-09-23T04:02:59.924Z,90.37
2022-09-23T04:05:27.372Z,90.53
2022-09-23T04:07:54.977Z,90.11
2022-09-23T04:10:22.830Z,90.41
2022-09-23T04:12:50.236Z,91.54
2022-09-23T04:15:17.829Z,91.63
2022-09-23T04:17:45.649Z,91.83
2022-09-23T04:20:13.068Z,92.08
2022-09-23T04:22:40.827Z,92.03
2022-09-23T04:25:08.923Z,92.11
2022-09-23T04:27:37.863Z,92.67
2022-09-23T04:30:06.950Z,92.59
2022-09-23T04:32:34.696Z,92.77
2022-09-23T04:35:02.206Z,93.17
2022-09-23T04:37:30.402Z,93.04
2022-09-23T04:39:58.117Z,93.10
2022-09-23T04:42:30.031Z,93.91
2022-09-23T04:44:57.956Z,94.04
2022-09-23T04:47:26.042Z,94.26
2022-09-23T04:49:57.769Z,94.60
2022-09-23T04:52:27.346Z,94.89
2022-09-23T04:54:54.718Z,94.42
2022-09-23T04:57:22.145Z,94.06
2022-09-23T04:59:49.831Z,94.16
2022-09-23T05:02:17.246Z,94.21
2022-09-23T05:04:45.075Z,95.70
2022-09-23T05:07:12.922Z,96.17
2022-09-23T05:09:40.273Z,94.63
2022-09-23T05:12:07.761Z,94.90
2022-09-23T05:14:35.549Z,94.52
2022-09-23T05:17:02.960Z,95.08
2022-09-23T05:19:30.324Z,95.59
2022-09-23T05:21:58.068Z,95.97
2022-09-23T05:24:26.193Z,95.25
2022-09-23T05:26:54.153Z,94.59
2022-09-23T05:29:21.837Z,94.67
2022-09-23T05:31:49.379Z,94.72
2022-09-23T05:34:18.656Z,94.03
2022-09-23T05:36:46.361Z,93.45
2022-09-23T05:39:13.842Z,93.52
2022-09-23T05:41:43.511Z,93.93
2022-09-23T05:44:15.347Z,93.74
2022-09-23T05:46:42.887Z,93.04
2022-09-23T05:49:10.498Z,92.55
2022-09-23T05:51:38.496Z,92.86
2022-09-23T05:54:06.632Z,92.59
2022-09-23T05:56:35.036Z,93.48
2022-09-23T05:59:04.367Z,94.32
2022-09-23T06:01:34.195Z,93.63
2022-09-23T06:04:04.889Z,93.20
2022-09-23T06:06:36.053Z,94.03
2022-09-23T06:09:05.512Z,94.61
2022-09-23T06:11:34.676Z,94.22
2022-09-23T06:14:03.242Z,93.22
2022-09-23T06:16:34.791Z,93.08
2022-09-23T06:19:05.817Z,92.73
2022-09-23T06:21:38.802Z,92.50
2022-09-23T06:24:07.627Z,92.24
2022-09-23T06:26:37.544Z,91.88
2022-09-23T06:29:10.717Z,91.28
2022-09-23T06:31:40.681Z,91.35
2022-09-23T06:34:14.208Z,90.98
2022-09-23T06:36:45.424Z,92.88
2022-09-23T06:39:16.682Z,91.44
2022-09-23T06:41:45.180Z,90.86
2022-09-23T06:44:13.895Z,90.31
2022-09-23T06:46:41.644Z,89.96
2022-09-23T06:49:09.652Z,89.37
2022-09-23T06:51:36.999Z,88.95
2022-09-23T06:54:04.739Z,88.89
2022-09-23T06:56:38.532Z,89.14
2022-09-23T06:59:09.639Z,88.74
2022-09-23T07:01:37.908Z,88.17
2022-09-23T07:04:07.371Z,88.17
2022-09-23T07:06:35.291Z,86.81
2022-09-23T07:09:03.839Z,85.81
2022-09-23T07:11:31.402Z,86.42
2022-09-23T07:13:58.849Z,86.12
2022-09-23T07:16:26.611Z,85.04
2022-09-23T07:21:22.413Z,83.83
2022-09-23T07:23:51.924Z,82.54
2022-09-23T07:26:20.547Z,83.10
2022-09-23T07:28:52.746Z,82.97
2022-09-23T07:31:34.379Z,81.43
2022-09-23T07:34:06.288Z,80.19
2022-09-23T07:36:37.143Z,78.95
2022-09-23T07:39:05.112Z,77.98
2022-09-23T07:41:34.430Z,75.94
2022-09-23T07:44:03.079Z,73.88
2022-09-23T07:46:33.144Z,74.26
2022-09-23T07:49:01.962Z,74.24
2022-09-23T07:51:36.083Z,73.69
2022-09-23T07:54:07.938Z,72.59
2022-09-23T07:56:37.027Z,71.63
2022-09-23T07:59:05.844Z,68.41
2022-09-23T08:01:38.987Z,68.34
2022-09-23T08:04:10.639Z,68.03
2022-09-23T08:06:46.889Z,66.97
2022-09-23T08:09:16.019Z,67.27
2022-09-23T08:11:43.453Z,65.51
2022-09-23T08:14:13.638Z,64.83
2022-09-23T08:16:42.769Z,65.81
2022-09-23T08:19:10.467Z,65.10
2022-09-23T08:21:39.383Z,64.78
2022-09-23T08:24:08.981Z,64.41
2022-09-23T08:26:36.472Z,64.91
2022-09-23T08:29:05.103Z,64.74
2022-09-23T08:31:32.902Z,63.56
2022-09-23T08:34:00.354Z,63.38
2022-09-23T08:36:28.082Z,62.85
2022-09-23T08:38:57.179Z,62.15
2022-09-23T08:41:45.976Z,61.57
2022-09-23T08:44:20.250Z,63.38
2022-09-23T08:46:54.728Z,62.44
2022-09-23T08:49:36.588Z,61.20
2022-09-23T08:52:13.562Z,61.58
2022-09-23T08:54:42.259Z,60.31
2022-09-23T08:57:25.889Z,61.27
2022-09-23T08:59:54.643Z,60.76
2022-09-23T09:02:23.208Z,60.23
2022-09-23T09:05:06.010Z,60.66
2022-09-23T09:07:37.382Z,60.00
2022-09-23T09:10:45.675Z,60.40
2022-09-23T09:13:31.019Z,61.24
2022-09-23T09:16:11.403Z,61.40
2022-09-23T09:18:55.115Z,60.70
2022-09-23T09:21:32.421Z,60.95
2022-09-23T09:24:01.862Z,61.15
2022-09-23T09:26:34.336Z,61.42
2022-09-23T09:29:35.509Z,61.64
2022-09-23T09:32:16.808Z,60.69
2022-09-23T09:34:54.568Z,61.28
2022-09-23T09:37:46.872Z,61.72
2022-09-23T09:40:17.219Z,60.76
2022-09-23T09:42:49.857Z,60.44
2022-09-23T09:45:34.659Z,59.73
2022-09-23T09:48:11.117Z,59.88
2022-09-23T09:50:50.244Z,59.23
2022-09-23T09:53:23.886Z,59.31
2022-09-23T09:56:07.292Z,60.73
2022-09-23T09:58:43.860Z,60.03
2022-09-23T10:01:31.095Z,60.37
2022-09-23T10:04:05.310Z,59.77
2022-09-23T10:06:35.177Z,58.63
2022-09-23T10:09:19.444Z,56.84
2022-09-23T10:12:15.490Z,56.40
2022-09-23T10:14:43.287Z,56.79
2022-09-23T10:17:24.486Z,56.73
2022-09-23T10:20:00.891Z,57.90
2022-09-23T10:22:42.337Z,57.54
2022-09-23T10:25:19.105Z,59.63
2022-09-23T10:27:46.931Z,59.19
2022-09-23T10:30:23.757Z,59.67
2022-09-23T10:32:54.864Z,58.51
2022-09-23T10:35:25.428Z,57.54
2022-09-23T10:37:55.831Z,57.10
2022-09-23T10:40:48.288Z,55.08
2022-09-23T10:43:58.873Z,55.78
2022-09-23T10:46:38.743Z,57.17
2022-09-23T10:49:57.784Z,56.70
2022-09-23T10:52:28.309Z,55.39
2022-09-23T10:55:10.716Z,55.64
2022-09-23T10:57:50.991Z,56.15
2022-09-23T11:00:23.043Z,55.81
2022-09-23T11:03:33.478Z,53.97
2022-09-23T11:06:12.207Z,54.50
2022-09-23T11:09:04.557Z,55.45
2022-09-23T11:12:26.376Z,56.55
2022-09-23T11:15:18.819Z,58.83
2022-09-23T11:18:19.793Z,58.89
2022-09-23T11:21:07.552Z,56.90
2022-09-23T11:23:54.419Z,59.15
2022-09-23T11:26:41.419Z,56.59
2022-09-23T11:29:33.810Z,56.42
2022-09-23T11:32:20.882Z,55.28
2022-09-23T11:34:54.338Z,53.24
2022-09-23T11:37:31.471Z,51.32
2022-09-23T11:40:05.370Z,51.43
2022-09-23T11:42:39.938Z,52.01
2022-09-23T11:45:15.868Z,52.18
2022-09-23T11:48:31.189Z,51.64
2022-09-23T11:51:04.987Z,52.75
2022-09-23T11:53:49.396Z,54.38
2022-09-23T11:56:34.926Z,55.94
2022-09-23T11:59:07.339Z,55.68
2022-09-23T12:01:47.105Z,57.84
2022-09-23T12:04:33.474Z,56.95
2022-09-23T12:07:13.680Z,56.05
2022-09-23T12:10:01.436Z,56.47
2022-09-23T12:12:34.788Z,55.93
2022-09-23T12:15:51.106Z,55.71
2022-09-23T12:18:49.183Z,52.87
2022-09-23T12:21:50.625Z,50.17
2022-09-23T12:24:44.818Z,51.55
2022-09-23T12:27:28.623Z,50.37
2022-09-23T12:30:02.070Z,48.59
2022-09-23T12:32:32.207Z,48.65
2022-09-23T12:35:02.877Z,49.57
2022-09-23T12:37:39.008Z,51.78
2022-09-23T12:40:43.787Z,52.46
2022-09-23T12:43:31.256Z,51.95
2022-09-23T12:46:28.277Z,53.12
2022-09-23T12:49:00.525Z,49.95
2022-09-23T12:51:36.361Z,50.72
2022-09-23T12:54:15.355Z,47.91
2022-09-23T12:56:58.217Z,47.59
2022-09-23T12:59:53.909Z,47.99
2022-09-23T13:02:33.062Z,46.53
2022-09-23T13:05:40.788Z,47.67
2022-09-23T13:08:17.271Z,45.82
2022-09-23T13:10:49.451Z,46.61
2022-09-23T13:13:22.124Z,44.26
2022-09-23T13:15:50.234Z,45.94
2022-09-23T13:18:20.890Z,45.02
2022-09-23T13:20:50.725Z,45.42
2022-09-23T13:23:22.807Z,45.83
2022-09-23T13:25:53.959Z,45.06
2022-09-23T13:28:53.269Z,43.93
2022-09-23T13:31:21.362Z,45.15
2022-09-23T13:33:54.394Z,46.23
2022-09-23T13:36:21.809Z,45.35
2022-09-23T13:38:49.993Z,43.87
2022-09-23T13:41:23.806Z,42.75
2022-09-23T13:43:59.514Z,42.16
2022-09-23T13:46:33.949Z,42.09
2022-09-23T13:49:03.169Z,42.35
2022-09-23T13:51:34.966Z,43.11
2022-09-23T13:54:04.709Z,43.58
2022-09-23T13:56:33.333Z,43.65
2022-09-23T13:59:19.529Z,45.52
2022-09-23T14:01:47.356Z,42.49
2022-09-23T14:04:25.349Z,44.53
2022-09-23T14:06:54.365Z,44.38
2022-09-23T14:09:27.456Z,44.96
2022-09-23T14:12:00.655Z,44.55
2022-09-23T14:14:30.577Z,44.18
2022-09-23T14:16:58.883Z,46.04
2022-09-23T14:19:26.709Z,47.70
2022-09-23T14:21:56.165Z,44.99
2022-09-23T14:24:31.831Z,45.70
2022-09-23T14:27:09.929Z,46.76
2022-09-23T14:29:40.299Z,46.20
2022-09-23T14:32:11.026Z,47.77
2022-09-23T14:35:16.003Z,47.22
2022-09-23T14:38:05.007Z,45.06
2022-09-23T14:40:53.703Z,45.24
2022-09-23T14:43:25.947Z,45.43
2022-09-23T14:45:58.262Z,46.21
2022-09-23T14:48:30.087Z,45.27
2022-09-23T14:51:00.115Z,45.89
2022-09-23T14:53:43.050Z,46.27
2022-09-23T14:56:41.400Z,44.90
2022-09-23T14:59:33.132Z,47.85
2022-09-23T15:02:00.561Z,46.67
2022-09-23T15:04:32.223Z,46.59
2022-09-23T15:07:04.462Z,46.47
2022-09-23T15:09:37.136Z,48.08
2022-09-23T15:12:13.646Z,48.17
2022-09-23T15:14:50.921Z,48.08
2022-09-23T15:17:18.336Z,48.44
2022-09-23T15:19:52.652Z,49.12
2022-09-23T15:22:20.203Z,47.90
2022-09-23T15:24:47.879Z,48.49
2022-09-23T15:27:24.110Z,49.50
2022-09-23T15:29:52.991Z,49.47
2022-09-23T15:32:22.028Z,49.85
2022-09-23T15:34:50.405Z,49.17
2022-09-23T15:37:18.141Z,48.97
2022-09-23T15:39:45.568Z,49.43
2022-09-23T15:42:12.916Z,49.79
2022-09-23T15:44:40.656Z,50.40
2022-09-23T15:47:14.847Z,51.36
2022-09-23T15:49:47.018Z,52.26
2022-09-23T15:52:15.849Z,52.36
2022-09-23T15:54:43.835Z,52.41
2022-09-23T15:57:11.493Z,52.83
2022-09-23T15:59:38.875Z,52.94
2022-09-23T16:02:18.058Z,53.30
2022-09-23T16:04:49.031Z,54.34
2022-09-23T16:07:17.029Z,54.95
2022-09-23T16:09:44.388Z,55.62
2022-09-23T16:12:12.610Z,55.78
2022-09-23T16:14:40.008Z,56.42
2022-09-23T16:17:09.077Z,56.89
2022-09-23T16:19:36.713Z,57.97
2022-09-23T16:22:04.240Z,59.45
2022-09-23T16:24:31.683Z,60.50
2022-09-23T16:27:04.118Z,60.46
2022-09-23T16:29:31.824Z,59.72
2022-09-23T16:32:00.997Z,59.57
2022-09-23T16:34:28.638Z,59.36
2022-09-23T16:36:56.078Z,59.68
2022-09-23T16:39:23.945Z,59.94
2022-09-23T16:41:51.658Z,60.16
2022-09-23T16:44:20.175Z,59.97
2022-09-23T16:46:47.866Z,59.75
2022-09-23T16:49:15.216Z,60.03
2022-09-23T16:51:42.593Z,61.50
2022-09-23T16:54:12.744Z,62.72
2022-09-23T16:56:46.332Z,63.02
2022-09-23T16:59:14.935Z,62.37
2022-09-23T17:02:01.387Z,61.49
2022-09-23T17:04:29.206Z,62.83
2022-09-23T17:06:56.793Z,64.15
2022-09-23T17:09:27.463Z,64.64
2022-09-23T17:12:10.144Z,66.19
2022-09-23T17:14:37.537Z,69.00
2022-09-23T17:17:06.442Z,69.68
2022-09-23T17:19:34.689Z,70.05
2022-09-23T17:22:02.117Z,69.43
2022-09-23T17:24:29.711Z,70.11
2022-09-23T17:26:57.056Z,68.46
2022-09-23T17:29:26.749Z,68.11
2022-09-23T17:31:54.687Z,69.00
2022-09-23T17:34:22.187Z,69.71
2022-09-23T17:36:49.721Z,70.70
2022-09-23T17:39:17.684Z,70.85
2022-09-23T17:41:45.492Z,70.76
2022-09-23T17:44:12.979Z,71.21
2022-09-23T17:46:40.586Z,70.54
2022-09-23T17:49:09.169Z,72.90
2022-09-23T17:51:37.205Z,72.74
2022-09-23T17:54:04.920Z,74.53
2022-09-23T17:56:33.854Z,74.05
2022-09-23T17:59:02.144Z,74.25
2022-09-23T18:01:29.952Z,74.50
2022-09-23T18:04:01.783Z,74.24
2022-09-23T18:06:31.756Z,73.55
2022-09-23T18:09:01.555Z,75.91
2022-09-23T18:11:31.502Z,79.04
2022-09-23T18:14:04.974Z,80.35
2022-09-23T18:16:37.604Z,79.90
2022-09-23T18:19:07.386Z,80.65
2022-09-23T18:21:37.395Z,81.31
2022-09-23T18:26:54.517Z,79.90
2022-09-23T18:29:22.200Z,80.16
2022-09-23T18:31:51.047Z,80.25
2022-09-23T18:34:18.833Z,80.20
2022-09-23T18:36:46.648Z,79.93
2022-09-23T18:39:14.065Z,80.02
2022-09-23T18:41:41.578Z,79.42
2022-09-23T18:44:09.654Z,79.41
2022-09-23T18:46:37.367Z,78.68
2022-09-23T18:49:23.569Z,77.98
2022-09-23T18:51:53.647Z,78.47
2022-09-23T18:54:23.004Z,78.24
2022-09-23T18:56:52.682Z,78.48
2022-09-23T18:59:24.655Z,78.38
2022-09-23T19:01:55.375Z,78.36
2022-09-23T19:04:25.017Z,78.26
2022-09-23T19:06:54.736Z,78.50
2022-09-23T19:09:22.302Z,78.96
2022-09-23T19:11:52.190Z,78.50
2022-09-23T19:14:20.166Z,78.94
2022-09-23T19:16:49.181Z,79.38
2022-09-23T19:19:16.840Z,79.32
2022-09-23T19:21:44.604Z,80.39
2022-09-23T19:24:15.744Z,82.71
2022-09-23T19:26:44.070Z,82.15
2022-09-23T19:29:17.102Z,79.90
2022-09-23T19:31:45.175Z,79.43
2022-09-23T19:34:18.576Z,78.34
2022-09-23T19:36:47.670Z,78.87
2022-09-23T19:39:28.215Z,78.29
2022-09-23T19:41:56.119Z,78.53
2022-09-23T19:44:26.739Z,80.31
2022-09-23T19:46:56.768Z,83.29
2022-09-23T19:49:25.663Z,84.06
2022-09-23T19:51:55.450Z,84.15
2022-09-23T19:54:26.057Z,84.37
2022-09-23T19:56:54.055Z,80.93
2022-09-23T19:59:21.505Z,80.11
2022-09-23T20:01:48.884Z,80.36
2022-09-23T20:04:17.072Z,79.86
2022-09-23T20:06:45.898Z,79.82
2022-09-23T20:09:13.609Z,79.69
2022-09-23T20:11:44.072Z,79.46
2022-09-23T20:14:11.956Z,78.99
2022-09-23T20:16:39.398Z,78.75
2022-09-23T20:19:07.445Z,78.89
2022-09-23T20:21:35.464Z,79.94
2022-09-23T20:24:06.979Z,79.54
2022-09-23T20:26:53.621Z,79.17
2022-09-23T20:29:21.006Z,79.20
2022-09-23T20:31:48.951Z,80.15
2022-09-23T20:34:16.436Z,80.22
2022-09-23T20:36:44.220Z,80.01
2022-09-23T20:39:11.920Z,80.07
2022-09-23T20:41:39.698Z,80.14
2022-09-23T20:44:14.127Z,79.99
2022-09-23T20:46:48.458Z,79.67
2022-09-23T20:49:17.490Z,79.77
2022-09-23T20:51:47.531Z,80.78
2022-09-23T20:54:16.404Z,80.34
2022-09-23T20:56:43.734Z,81.52
2022-09-23T20:59:14.889Z,80.99
2022-09-23T21:01:42.798Z,82.44
2022-09-23T21:04:10.280Z,82.34
2022-09-23T21:06:39.119Z,81.63
2022-09-23T21:09:10.853Z,81.76
2022-09-23T21:11:38.525Z,81.60
2022-09-23T21:14:06.086Z,81.70
2022-09-23T21:16:33.861Z,81.89
2022-09-23T21:19:03.164Z,82.63
2022-09-23T21:21:30.588Z,82.65
2022-09-23T21:24:17.241Z,82.50
2022-09-23T21:26:47.758Z,83.78
2022-09-23T21:29:15.172Z,84.25
2022-09-23T21:31:42.660Z,84.03
2022-09-23T21:34:11.433Z,84.00
2022-09-23T21:36:42.707Z,83.49
2022-09-23T21:39:11.650Z,83.76
2022-09-23T21:41:40.008Z,83.91
2022-09-23T21:44:08.548Z,84.67
2022-09-23T21:46:38.215Z,85.04
2022-09-23T21:49:05.785Z,85.88
2022-09-23T21:51:37.706Z,87.01
2022-09-23T21:54:07.250Z,87.41
2022-09-23T21:56:36.383Z,86.65
2022-09-23T21:59:04.232Z,86.61
2022-09-23T22:01:34.950Z,86.18
2022-09-23T22:04:07.964Z,85.96
2022-09-23T22:06:38.271Z,85.88
2022-09-23T22:09:08.989Z,87.84
2022-09-23T22:11:56.320Z,88.13
2022-09-23T22:14:26.292Z,88.71
2022-09-23T22:16:57.490Z,87.94
2022-09-23T22:19:27.074Z,87.88
2022-09-23T22:21:55.857Z,87.18
2022-09-23T22:24:23.377Z,87.65
2022-09-23T22:26:51.215Z,87.69
2022-09-23T22:29:37.519Z,87.77
2022-09-23T22:32:28.264Z,87.04
2022-09-23T22:34:56.030Z,86.42
2022-09-23T22:37:34.167Z,87.14
2022-09-23T22:40:11.002Z,86.67
2022-09-23T22:42:40.120Z,86.41
2022-09-23T22:45:09.224Z,86.26
2022-09-23T22:47:39.600Z,87.18
2022-09-23T22:50:09.109Z,87.75
2022-09-23T22:52:37.425Z,87.51
2022-09-23T22:55:07.774Z,87.40
2022-09-23T22:57:36.433Z,87.79
2022-09-23T23:00:08.301Z,87.84
2022-09-23T23:02:36.731Z,87.88
2022-09-23T23:05:04.389Z,86.89
2022-09-23T23:07:35.007Z,86.89
2022-09-23T23:10:03.927Z,86.92
2022-09-23T23:12:33.433Z,86.40
2022-09-23T23:15:00.798Z,87.59
2022-09-23T23:17:29.829Z,87.04
2022-09-23T23:19:57.849Z,86.96
2022-09-23T23:22:28.527Z,87.15
2022-09-23T23:24:56.518Z,87.57
2022-09-23T23:27:23.947Z,87.34
2022-09-23T23:29:51.454Z,87.39
2022-09-23T23:32:19.113Z,87.23
2022-09-23T23:34:46.726Z,87.34
2022-09-23T23:37:17.641Z,86.52
2022-09-23T23:39:48.037Z,86.46
2022-09-23T23:42:15.573Z,87.05
2022-09-23T23:44:42.945Z,86.47
2022-09-23T23:47:10.641Z,86.30
2022-09-23T23:49:38.175Z,87.74
2022-09-23T23:52:05.742Z,88.80
2022-09-23T23:54:33.387Z,89.33
2022-09-23T23:57:00.772Z,86.91
2022-09-23T23:59:28.788Z,88.12
